Aeroporto :
LOGIN :

Iscrizione | Disclaimer

   EN    FR    IT 

 










Sommario :    VFR   VFR Marginale   IFR   IFR Intensivo   IFR Molto Intensivo
Visibilità : 
Base nubi : 
>= 8 km
>= 3000ft
5 / 8 km
1000 / 3000 ft
1500m / 5 km
500 / 1000 ft
800 / 1500m
200 / 500 ft
< 800m
< 200 ft
Simboli :   Temporali  Nebbia  Neve Forte  Precipitazioni Forti  Vento > 20 kt
SIGMETs :   Varie  Temporali  Ghiacco  Turbolenza  Onda orograficha  Ceneri Vulcaniche






- Altitudine del aeroporto : 1487 ft
- Codice IATA : MUC


EDDM - München Franz Josef Strauss

ULTIMO METAR :
  • 202020Z VRB02KT CAVOK 03/M00 Q1017 NOSIG

METARs OBSOLETI :
  • 201950Z 19004KT CAVOK 02/00 Q1018 NOSIG
  • 201920Z VRB02KT CAVOK 01/M01 Q1018 NOSIG
  • 201850Z 18003KT 090V240 CAVOK 03/00 Q1018 NOSIG
  • 201820Z 20004KT 170V230 CAVOK 06/02 Q1018 NOSIG
  • 201750Z 13004KT 100V220 CAVOK 06/02 Q1019 NOSIG

TAF TAF EDDM
Valido dal 20 a 18 ore il 22 a 00 ore UTC


201700Z 2018/2124 VRB03KT CAVOK
BECMG 2020/2022 24010KT
BECMG 2023/2101 27020G35KT
PROB40
TEMPO 2101/2103 RA
BECMG 2104/2106 27015G25KT
BECMG 2115/2117 25005KT



MetMap, La meteo Aeronautica in un colpo d'occhio ! - Copyright ORBIFLY Dicembre 2007 - Disclaimer

ORBIFLY MET'MAP TEAM :

Programmazione e sviluppo : Alexandra Zaïnal
Concezione : Baudouin d'Aumeries
Aiuto per la programmazione : Marc-Olivier Méhu
Supporto tecnico e logistico : Manuel Goepfert
Aiuto per la traduzione : Arnaldo La Scala

Contatto : metmap@orbifly.com




FONTI E CREDITI :

   NOAA